sensor_id;sensor_type;location;lat;lon;timestamp;P1;durP1;ratioP1;P2;durP2;ratioP2
57337;SDS011;43173;50.980;18.204;2023-04-25T00:01:04;9.80;;;8.00;;
57337;SDS011;43173;50.980;18.204;2023-04-25T00:03:33;13.50;;;8.60;;
57337;SDS011;43173;50.980;18.204;2023-04-25T00:05:59;10.80;;;7.70;;
57337;SDS011;43173;50.980;18.204;2023-04-25T00:08:28;13.30;;;7.80;;
57337;SDS011;43173;50.980;18.204;2023-04-25T00:10:54;13.90;;;8.10;;
57337;SDS011;43173;50.980;18.204;2023-04-25T00:13:20;10.60;;;8.00;;
57337;SDS011;43173;50.980;18.204;2023-04-25T00:15:46;11.00;;;7.40;;
57337;SDS011;43173;50.980;18.204;2023-04-25T00:18:14;7.80;;;6.20;;
57337;SDS011;43173;50.980;18.204;2023-04-25T00:20:40;9.00;;;5.20;;
57337;SDS011;43173;50.980;18.204;2023-04-25T00:23:15;11.00;;;6.50;;
57337;SDS011;43173;50.980;18.204;2023-04-25T00:25:43;8.20;;;5.60;;
57337;SDS011;43173;50.980;18.204;2023-04-25T00:28:10;4.80;;;3.30;;
57337;SDS011;43173;50.980;18.204;2023-04-25T00:30:37;6.80;;;4.60;;
57337;SDS011;43173;50.980;18.204;2023-04-25T00:33:04;6.80;;;4.80;;
57337;SDS011;43173;50.980;18.204;2023-04-25T00:35:30;6.40;;;4.50;;
57337;SDS011;43173;50.980;18.204;2023-04-25T00:37:55;5.40;;;3.10;;
57337;SDS011;43173;50.980;18.204;2023-04-25T00:40:21;4.00;;;3.10;;
57337;SDS011;43173;50.980;18.204;2023-04-25T00:42:47;5.30;;;3.40;;
57337;SDS011;43173;50.980;18.204;2023-04-25T00:45:13;4.80;;;3.40;;
57337;SDS011;43173;50.980;18.204;2023-04-25T00:47:40;4.00;;;2.90;;
57337;SDS011;43173;50.980;18.204;2023-04-25T00:50:07;4.40;;;3.10;;
57337;SDS011;43173;50.980;18.204;2023-04-25T00:52:34;6.10;;;2.90;;
57337;SDS011;43173;50.980;18.204;2023-04-25T00:54:59;8.80;;;2.30;;
57337;SDS011;43173;50.980;18.204;2023-04-25T00:57:25;2.10;;;1.90;;
57337;SDS011;43173;50.980;18.204;2023-04-25T00:59:51;4.20;;;2.60;;
57337;SDS011;43173;50.980;18.204;2023-04-25T01:02:19;2.60;;;2.10;;
57337;SDS011;43173;50.980;18.204;2023-04-25T01:04:46;2.90;;;2.30;;
57337;SDS011;43173;50.980;18.204;2023-04-25T01:07:12;2.70;;;2.10;;
57337;SDS011;43173;50.980;18.204;2023-04-25T01:09:39;3.90;;;2.40;;
57337;SDS011;43173;50.980;18.204;2023-04-25T01:12:04;4.00;;;2.00;;
57337;SDS011;43173;50.980;18.204;2023-04-25T01:14:31;6.90;;;6.30;;
57337;SDS011;43173;50.980;18.204;2023-04-25T01:16:56;3.40;;;2.10;;
57337;SDS011;43173;50.980;18.204;2023-04-25T01:19:22;4.30;;;3.30;;
57337;SDS011;43173;50.980;18.204;2023-04-25T01:21:49;4.20;;;2.60;;
57337;SDS011;43173;50.980;18.204;2023-04-25T01:24:15;3.80;;;1.80;;
57337;SDS011;43173;50.980;18.204;2023-04-25T01:26:41;2.60;;;2.10;;
57337;SDS011;43173;50.980;18.204;2023-04-25T01:29:18;4.90;;;2.30;;
57337;SDS011;43173;50.980;18.204;2023-04-25T01:31:45;2.00;;;1.80;;
57337;SDS011;43173;50.980;18.204;2023-04-25T01:34:11;2.30;;;2.00;;
57337;SDS011;43173;50.980;18.204;2023-04-25T01:36:37;3.30;;;2.10;;
57337;SDS011;43173;50.980;18.204;2023-04-25T01:39:03;2.40;;;2.00;;
57337;SDS011;43173;50.980;18.204;2023-04-25T01:41:29;3.40;;;2.00;;
57337;SDS011;43173;50.980;18.204;2023-04-25T01:43:54;3.50;;;1.80;;
57337;SDS011;43173;50.980;18.204;2023-04-25T01:46:20;2.30;;;1.80;;
57337;SDS011;43173;50.980;18.204;2023-04-25T01:48:46;2.30;;;2.00;;
57337;SDS011;43173;50.980;18.204;2023-04-25T01:51:12;3.60;;;2.00;;
57337;SDS011;43173;50.980;18.204;2023-04-25T01:53:38;3.00;;;2.00;;
57337;SDS011;43173;50.980;18.204;2023-04-25T01:56:04;2.10;;;1.60;;
57337;SDS011;43173;50.980;18.204;2023-04-25T01:58:30;2.10;;;1.80;;
57337;SDS011;43173;50.980;18.204;2023-04-25T02:00:56;2.00;;;1.70;;
57337;SDS011;43173;50.980;18.204;2023-04-25T02:03:22;3.30;;;1.60;;
57337;SDS011;43173;50.980;18.204;2023-04-25T02:05:47;4.00;;;2.10;;
57337;SDS011;43173;50.980;18.204;2023-04-25T02:08:13;3.30;;;2.90;;
57337;SDS011;43173;50.980;18.204;2023-04-25T02:10:39;1.80;;;1.70;;
57337;SDS011;43173;50.980;18.204;2023-04-25T02:13:04;6.10;;;2.40;;
57337;SDS011;43173;50.980;18.204;2023-04-25T02:15:30;2.30;;;2.10;;
57337;SDS011;43173;50.980;18.204;2023-04-25T02:17:56;2.30;;;2.00;;
57337;SDS011;43173;50.980;18.204;2023-04-25T02:20:23;3.20;;;2.30;;
57337;SDS011;43173;50.980;18.204;2023-04-25T02:22:50;2.90;;;2.30;;
57337;SDS011;43173;50.980;18.204;2023-04-25T02:25:16;3.60;;;2.40;;
57337;SDS011;43173;50.980;18.204;2023-04-25T02:27:43;8.60;;;2.60;;
57337;SDS011;43173;50.980;18.204;2023-04-25T02:30:09;2.70;;;2.30;;
57337;SDS011;43173;50.980;18.204;2023-04-25T02:32:34;3.10;;;2.60;;
57337;SDS011;43173;50.980;18.204;2023-04-25T02:35:00;3.10;;;2.10;;
57337;SDS011;43173;50.980;18.204;2023-04-25T02:37:30;2.70;;;2.50;;
57337;SDS011;43173;50.980;18.204;2023-04-25T02:39:56;3.60;;;2.20;;
57337;SDS011;43173;50.980;18.204;2023-04-25T02:42:22;5.10;;;2.10;;
57337;SDS011;43173;50.980;18.204;2023-04-25T02:44:48;3.30;;;2.50;;
57337;SDS011;43173;50.980;18.204;2023-04-25T02:47:13;2.70;;;2.30;;
57337;SDS011;43173;50.980;18.204;2023-04-25T02:49:39;2.90;;;2.50;;
57337;SDS011;43173;50.980;18.204;2023-04-25T02:52:04;2.60;;;2.30;;
57337;SDS011;43173;50.980;18.204;2023-04-25T02:54:31;3.30;;;2.20;;
57337;SDS011;43173;50.980;18.204;2023-04-25T02:56:57;4.00;;;2.00;;
57337;SDS011;43173;50.980;18.204;2023-04-25T02:59:22;3.60;;;2.80;;
57337;SDS011;43173;50.980;18.204;2023-04-25T03:01:48;5.60;;;3.40;;
57337;SDS011;43173;50.980;18.204;2023-04-25T03:04:14;6.10;;;3.30;;
57337;SDS011;43173;50.980;18.204;2023-04-25T03:06:39;3.40;;;3.10;;
57337;SDS011;43173;50.980;18.204;2023-04-25T03:09:05;5.00;;;3.40;;
57337;SDS011;43173;50.980;18.204;2023-04-25T03:11:30;3.40;;;3.10;;
57337;SDS011;43173;50.980;18.204;2023-04-25T03:13:56;3.70;;;2.90;;
57337;SDS011;43173;50.980;18.204;2023-04-25T03:16:22;4.00;;;3.40;;
57337;SDS011;43173;50.980;18.204;2023-04-25T03:18:47;4.00;;;3.10;;
57337;SDS011;43173;50.980;18.204;2023-04-25T03:21:14;4.80;;;3.30;;
57337;SDS011;43173;50.980;18.204;2023-04-25T03:23:40;4.40;;;3.20;;
57337;SDS011;43173;50.980;18.204;2023-04-25T03:26:05;3.50;;;2.50;;
57337;SDS011;43173;50.980;18.204;2023-04-25T03:28:31;3.50;;;3.00;;
57337;SDS011;43173;50.980;18.204;2023-04-25T03:30:57;4.20;;;3.10;;
57337;SDS011;43173;50.980;18.204;2023-04-25T03:33:22;4.60;;;2.60;;
57337;SDS011;43173;50.980;18.204;2023-04-25T03:35:48;5.90;;;2.60;;
57337;SDS011;43173;50.980;18.204;2023-04-25T03:38:15;2.90;;;2.60;;
57337;SDS011;43173;50.980;18.204;2023-04-25T03:40:41;3.20;;;2.70;;
57337;SDS011;43173;50.980;18.204;2023-04-25T03:43:06;5.70;;;2.60;;
57337;SDS011;43173;50.980;18.204;2023-04-25T03:45:32;3.00;;;2.70;;
57337;SDS011;43173;50.980;18.204;2023-04-25T03:47:58;5.30;;;4.00;;
57337;SDS011;43173;50.980;18.204;2023-04-25T03:50:24;7.50;;;5.80;;
57337;SDS011;43173;50.980;18.204;2023-04-25T03:52:50;9.00;;;5.80;;
57337;SDS011;43173;50.980;18.204;2023-04-25T03:55:15;6.20;;;4.10;;
57337;SDS011;43173;50.980;18.204;2023-04-25T03:57:41;3.60;;;2.70;;
57337;SDS011;43173;50.980;18.204;2023-04-25T04:00:06;2.70;;;2.40;;
57337;SDS011;43173;50.980;18.204;2023-04-25T04:02:33;3.60;;;2.60;;
57337;SDS011;43173;50.980;18.204;2023-04-25T04:05:00;3.10;;;2.80;;
57337;SDS011;43173;50.980;18.204;2023-04-25T04:07:26;8.10;;;5.30;;
57337;SDS011;43173;50.980;18.204;2023-04-25T04:09:52;8.30;;;7.50;;
57337;SDS011;43173;50.980;18.204;2023-04-25T04:12:17;8.90;;;7.90;;
57337;SDS011;43173;50.980;18.204;2023-04-25T04:14:43;9.30;;;5.60;;
57337;SDS011;43173;50.980;18.204;2023-04-25T04:17:09;3.40;;;2.80;;
57337;SDS011;43173;50.980;18.204;2023-04-25T04:19:34;4.40;;;2.80;;
57337;SDS011;43173;50.980;18.204;2023-04-25T04:22:00;3.80;;;2.40;;
57337;SDS011;43173;50.980;18.204;2023-04-25T04:24:26;3.20;;;2.30;;
57337;SDS011;43173;50.980;18.204;2023-04-25T04:26:51;3.20;;;2.40;;
57337;SDS011;43173;50.980;18.204;2023-04-25T04:29:18;3.50;;;2.70;;
57337;SDS011;43173;50.980;18.204;2023-04-25T04:31:49;5.30;;;3.60;;
57337;SDS011;43173;50.980;18.204;2023-04-25T04:34:19;5.20;;;2.90;;
57337;SDS011;43173;50.980;18.204;2023-04-25T04:36:45;6.00;;;3.20;;
57337;SDS011;43173;50.980;18.204;2023-04-25T04:39:12;6.60;;;3.30;;
57337;SDS011;43173;50.980;18.204;2023-04-25T04:41:38;6.00;;;3.90;;
57337;SDS011;43173;50.980;18.204;2023-04-25T04:44:04;9.00;;;4.00;;
57337;SDS011;43173;50.980;18.204;2023-04-25T04:46:32;5.20;;;4.00;;
57337;SDS011;43173;50.980;18.204;2023-04-25T04:49:06;4.20;;;3.50;;
57337;SDS011;43173;50.980;18.204;2023-04-25T04:51:31;4.60;;;3.60;;
57337;SDS011;43173;50.980;18.204;2023-04-25T04:53:58;3.80;;;2.90;;
57337;SDS011;43173;50.980;18.204;2023-04-25T04:56:28;4.30;;;3.90;;
57337;SDS011;43173;50.980;18.204;2023-04-25T04:58:56;5.80;;;3.50;;
57337;SDS011;43173;50.980;18.204;2023-04-25T05:01:22;5.70;;;3.50;;
57337;SDS011;43173;50.980;18.204;2023-04-25T05:03:48;5.70;;;3.30;;
57337;SDS011;43173;50.980;18.204;2023-04-25T05:06:15;4.20;;;3.20;;
57337;SDS011;43173;50.980;18.204;2023-04-25T05:08:41;6.70;;;3.20;;
57337;SDS011;43173;50.980;18.204;2023-04-25T05:11:07;3.50;;;3.00;;
57337;SDS011;43173;50.980;18.204;2023-04-25T05:13:32;5.20;;;3.40;;
57337;SDS011;43173;50.980;18.204;2023-04-25T05:15:58;4.70;;;3.10;;
57337;SDS011;43173;50.980;18.204;2023-04-25T05:18:24;3.50;;;3.10;;
57337;SDS011;43173;50.980;18.204;2023-04-25T05:20:50;3.90;;;3.00;;
57337;SDS011;43173;50.980;18.204;2023-04-25T05:23:15;4.30;;;2.80;;
57337;SDS011;43173;50.980;18.204;2023-04-25T05:25:41;6.80;;;3.30;;
57337;SDS011;43173;50.980;18.204;2023-04-25T05:28:07;4.50;;;3.20;;
57337;SDS011;43173;50.980;18.204;2023-04-25T05:30:33;4.40;;;3.80;;
57337;SDS011;43173;50.980;18.204;2023-04-25T05:32:59;5.50;;;3.80;;
57337;SDS011;43173;50.980;18.204;2023-04-25T05:35:26;7.00;;;3.40;;
57337;SDS011;43173;50.980;18.204;2023-04-25T05:37:52;5.90;;;4.30;;
57337;SDS011;43173;50.980;18.204;2023-04-25T05:40:18;5.00;;;3.30;;
57337;SDS011;43173;50.980;18.204;2023-04-25T05:42:43;5.20;;;4.10;;
57337;SDS011;43173;50.980;18.204;2023-04-25T05:45:09;9.20;;;5.00;;
57337;SDS011;43173;50.980;18.204;2023-04-25T05:47:35;6.80;;;4.20;;
57337;SDS011;43173;50.980;18.204;2023-04-25T05:50:01;7.60;;;4.90;;
57337;SDS011;43173;50.980;18.204;2023-04-25T05:52:27;6.20;;;4.80;;
57337;SDS011;43173;50.980;18.204;2023-04-25T05:54:53;7.90;;;5.40;;
57337;SDS011;43173;50.980;18.204;2023-04-25T05:57:19;8.10;;;4.90;;
57337;SDS011;43173;50.980;18.204;2023-04-25T05:59:46;7.30;;;4.40;;
57337;SDS011;43173;50.980;18.204;2023-04-25T06:02:11;7.70;;;5.40;;
57337;SDS011;43173;50.980;18.204;2023-04-25T06:04:37;7.30;;;4.80;;
57337;SDS011;43173;50.980;18.204;2023-04-25T06:07:03;6.90;;;4.90;;
57337;SDS011;43173;50.980;18.204;2023-04-25T06:09:28;8.40;;;5.00;;
57337;SDS011;43173;50.980;18.204;2023-04-25T06:11:54;7.90;;;4.50;;
57337;SDS011;43173;50.980;18.204;2023-04-25T06:14:19;8.10;;;5.50;;
57337;SDS011;43173;50.980;18.204;2023-04-25T06:16:45;14.70;;;13.20;;
57337;SDS011;43173;50.980;18.204;2023-04-25T06:19:11;7.40;;;5.60;;
57337;SDS011;43173;50.980;18.204;2023-04-25T06:21:36;7.80;;;5.70;;
57337;SDS011;43173;50.980;18.204;2023-04-25T06:24:02;10.10;;;6.70;;
57337;SDS011;43173;50.980;18.204;2023-04-25T06:26:28;12.10;;;10.30;;
57337;SDS011;43173;50.980;18.204;2023-04-25T06:28:54;7.30;;;5.30;;
57337;SDS011;43173;50.980;18.204;2023-04-25T06:31:20;10.50;;;8.40;;
57337;SDS011;43173;50.980;18.204;2023-04-25T06:33:46;9.40;;;6.90;;
57337;SDS011;43173;50.980;18.204;2023-04-25T06:36:13;15.00;;;13.10;;
57337;SDS011;43173;50.980;18.204;2023-04-25T06:38:39;8.90;;;6.40;;
57337;SDS011;43173;50.980;18.204;2023-04-25T06:41:05;6.50;;;3.50;;
57337;SDS011;43173;50.980;18.204;2023-04-25T06:43:30;7.80;;;5.20;;
57337;SDS011;43173;50.980;18.204;2023-04-25T06:45:59;8.70;;;7.10;;
57337;SDS011;43173;50.980;18.204;2023-04-25T06:48:26;7.50;;;5.40;;
57337;SDS011;43173;50.980;18.204;2023-04-25T06:50:52;6.70;;;5.00;;
57337;SDS011;43173;50.980;18.204;2023-04-25T06:53:18;5.20;;;3.80;;
57337;SDS011;43173;50.980;18.204;2023-04-25T06:55:43;6.40;;;4.30;;
57337;SDS011;43173;50.980;18.204;2023-04-25T06:58:09;6.50;;;4.50;;
57337;SDS011;43173;50.980;18.204;2023-04-25T07:00:35;8.40;;;5.50;;
57337;SDS011;43173;50.980;18.204;2023-04-25T07:03:01;10.10;;;5.80;;
57337;SDS011;43173;50.980;18.204;2023-04-25T07:05:27;8.10;;;5.40;;
57337;SDS011;43173;50.980;18.204;2023-04-25T07:07:52;13.10;;;6.00;;
57337;SDS011;43173;50.980;18.204;2023-04-25T07:10:18;7.10;;;5.10;;
57337;SDS011;43173;50.980;18.204;2023-04-25T07:12:44;9.40;;;5.10;;
57337;SDS011;43173;50.980;18.204;2023-04-25T07:15:10;7.00;;;5.30;;
57337;SDS011;43173;50.980;18.204;2023-04-25T07:17:37;10.50;;;6.20;;
57337;SDS011;43173;50.980;18.204;2023-04-25T07:20:03;8.40;;;5.90;;
57337;SDS011;43173;50.980;18.204;2023-04-25T07:22:31;7.70;;;6.30;;
57337;SDS011;43173;50.980;18.204;2023-04-25T07:24:57;9.60;;;6.90;;
57337;SDS011;43173;50.980;18.204;2023-04-25T07:27:24;9.70;;;6.20;;
57337;SDS011;43173;50.980;18.204;2023-04-25T07:29:49;6.90;;;4.30;;
57337;SDS011;43173;50.980;18.204;2023-04-25T07:32:15;6.10;;;4.50;;
57337;SDS011;43173;50.980;18.204;2023-04-25T07:34:41;5.50;;;4.70;;
57337;SDS011;43173;50.980;18.204;2023-04-25T07:37:06;6.70;;;4.50;;
57337;SDS011;43173;50.980;18.204;2023-04-25T07:39:32;9.40;;;5.40;;
57337;SDS011;43173;50.980;18.204;2023-04-25T07:41:58;6.80;;;4.70;;
57337;SDS011;43173;50.980;18.204;2023-04-25T07:44:23;5.90;;;4.50;;
57337;SDS011;43173;50.980;18.204;2023-04-25T07:46:50;8.20;;;5.10;;
57337;SDS011;43173;50.980;18.204;2023-04-25T07:49:16;4.40;;;3.60;;
57337;SDS011;43173;50.980;18.204;2023-04-25T07:51:41;7.70;;;4.80;;
57337;SDS011;43173;50.980;18.204;2023-04-25T07:54:13;4.50;;;2.70;;
57337;SDS011;43173;50.980;18.204;2023-04-25T07:56:39;9.10;;;5.30;;
57337;SDS011;43173;50.980;18.204;2023-04-25T07:59:05;8.50;;;4.90;;
57337;SDS011;43173;50.980;18.204;2023-04-25T08:01:31;5.00;;;3.90;;
57337;SDS011;43173;50.980;18.204;2023-04-25T08:03:56;5.70;;;3.90;;
57337;SDS011;43173;50.980;18.204;2023-04-25T08:06:22;6.10;;;4.00;;
57337;SDS011;43173;50.980;18.204;2023-04-25T08:08:48;6.30;;;4.40;;
57337;SDS011;43173;50.980;18.204;2023-04-25T08:11:13;6.30;;;4.70;;
57337;SDS011;43173;50.980;18.204;2023-04-25T08:13:39;7.30;;;4.60;;
57337;SDS011;43173;50.980;18.204;2023-04-25T08:16:05;9.50;;;4.30;;
57337;SDS011;43173;50.980;18.204;2023-04-25T08:18:30;5.50;;;4.50;;
57337;SDS011;43173;50.980;18.204;2023-04-25T08:20:56;5.80;;;3.60;;
57337;SDS011;43173;50.980;18.204;2023-04-25T08:23:22;8.80;;;4.10;;
57337;SDS011;43173;50.980;18.204;2023-04-25T08:25:48;6.00;;;4.50;;
57337;SDS011;43173;50.980;18.204;2023-04-25T08:28:14;6.80;;;4.30;;
57337;SDS011;43173;50.980;18.204;2023-04-25T08:30:40;5.30;;;3.70;;
57337;SDS011;43173;50.980;18.204;2023-04-25T08:33:06;6.20;;;4.30;;
57337;SDS011;43173;50.980;18.204;2023-04-25T08:35:31;6.20;;;4.20;;
57337;SDS011;43173;50.980;18.204;2023-04-25T08:37:58;7.10;;;4.00;;
57337;SDS011;43173;50.980;18.204;2023-04-25T08:40:24;5.80;;;2.90;;
57337;SDS011;43173;50.980;18.204;2023-04-25T08:42:54;6.80;;;4.50;;
57337;SDS011;43173;50.980;18.204;2023-04-25T08:45:21;7.90;;;4.20;;
57337;SDS011;43173;50.980;18.204;2023-04-25T08:47:47;5.40;;;3.30;;
57337;SDS011;43173;50.980;18.204;2023-04-25T08:50:14;4.70;;;3.40;;
57337;SDS011;43173;50.980;18.204;2023-04-25T08:52:43;4.60;;;3.10;;
57337;SDS011;43173;50.980;18.204;2023-04-25T08:55:10;4.00;;;2.50;;
57337;SDS011;43173;50.980;18.204;2023-04-25T08:57:37;4.50;;;2.80;;
57337;SDS011;43173;50.980;18.204;2023-04-25T09:00:04;10.50;;;5.40;;
57337;SDS011;43173;50.980;18.204;2023-04-25T09:02:30;19.30;;;10.00;;
57337;SDS011;43173;50.980;18.204;2023-04-25T09:04:56;7.20;;;3.50;;
57337;SDS011;43173;50.980;18.204;2023-04-25T09:07:22;6.60;;;3.70;;
57337;SDS011;43173;50.980;18.204;2023-04-25T09:09:48;9.60;;;5.60;;
57337;SDS011;43173;50.980;18.204;2023-04-25T09:12:14;8.90;;;4.80;;
57337;SDS011;43173;50.980;18.204;2023-04-25T09:14:40;7.50;;;3.60;;
57337;SDS011;43173;50.980;18.204;2023-04-25T09:17:07;5.40;;;3.60;;
57337;SDS011;43173;50.980;18.204;2023-04-25T09:19:33;8.80;;;4.50;;
57337;SDS011;43173;50.980;18.204;2023-04-25T09:22:02;7.60;;;3.90;;
57337;SDS011;43173;50.980;18.204;2023-04-25T09:24:35;8.10;;;3.50;;
57337;SDS011;43173;50.980;18.204;2023-04-25T09:27:03;5.70;;;2.60;;
57337;SDS011;43173;50.980;18.204;2023-04-25T09:29:33;6.00;;;3.10;;
57337;SDS011;43173;50.980;18.204;2023-04-25T09:34:49;5.20;;;2.40;;
57337;SDS011;43173;50.980;18.204;2023-04-25T09:37:19;5.00;;;3.40;;
57337;SDS011;43173;50.980;18.204;2023-04-25T09:39:47;7.40;;;3.70;;
57337;SDS011;43173;50.980;18.204;2023-04-25T09:42:16;8.20;;;4.00;;
57337;SDS011;43173;50.980;18.204;2023-04-25T09:44:46;8.10;;;4.50;;
57337;SDS011;43173;50.980;18.204;2023-04-25T09:47:13;8.10;;;4.10;;
57337;SDS011;43173;50.980;18.204;2023-04-25T09:49:41;9.00;;;5.00;;
57337;SDS011;43173;50.980;18.204;2023-04-25T09:52:07;3.70;;;2.60;;
57337;SDS011;43173;50.980;18.204;2023-04-25T09:54:34;6.20;;;3.00;;
57337;SDS011;43173;50.980;18.204;2023-04-25T09:57:06;10.90;;;3.80;;
57337;SDS011;43173;50.980;18.204;2023-04-25T09:59:38;6.10;;;3.90;;
57337;SDS011;43173;50.980;18.204;2023-04-25T10:02:08;5.80;;;4.20;;
57337;SDS011;43173;50.980;18.204;2023-04-25T10:04:34;4.40;;;3.20;;
57337;SDS011;43173;50.980;18.204;2023-04-25T10:07:03;6.60;;;3.80;;
57337;SDS011;43173;50.980;18.204;2023-04-25T10:09:31;7.10;;;3.70;;
57337;SDS011;43173;50.980;18.204;2023-04-25T10:11:59;6.00;;;4.20;;
57337;SDS011;43173;50.980;18.204;2023-04-25T10:14:26;4.40;;;3.00;;
57337;SDS011;43173;50.980;18.204;2023-04-25T10:16:52;6.50;;;3.60;;
57337;SDS011;43173;50.980;18.204;2023-04-25T10:19:21;8.00;;;3.80;;
57337;SDS011;43173;50.980;18.204;2023-04-25T10:24:35;5.80;;;3.80;;
57337;SDS011;43173;50.980;18.204;2023-04-25T10:27:02;7.50;;;4.10;;
57337;SDS011;43173;50.980;18.204;2023-04-25T10:29:28;7.60;;;4.70;;
57337;SDS011;43173;50.980;18.204;2023-04-25T10:31:54;6.60;;;4.60;;
57337;SDS011;43173;50.980;18.204;2023-04-25T10:34:19;7.50;;;4.00;;
57337;SDS011;43173;50.980;18.204;2023-04-25T10:36:50;7.20;;;4.30;;
57337;SDS011;43173;50.980;18.204;2023-04-25T10:39:23;6.40;;;4.20;;
57337;SDS011;43173;50.980;18.204;2023-04-25T10:41:57;5.00;;;3.30;;
57337;SDS011;43173;50.980;18.204;2023-04-25T10:44:29;6.60;;;5.00;;
57337;SDS011;43173;50.980;18.204;2023-04-25T10:46:56;6.80;;;5.30;;
57337;SDS011;43173;50.980;18.204;2023-04-25T10:49:29;9.40;;;4.80;;
57337;SDS011;43173;50.980;18.204;2023-04-25T10:54:41;7.20;;;4.50;;
57337;SDS011;43173;50.980;18.204;2023-04-25T10:57:25;6.30;;;4.30;;
57337;SDS011;43173;50.980;18.204;2023-04-25T11:00:15;4.60;;;3.40;;
57337;SDS011;43173;50.980;18.204;2023-04-25T11:02:57;7.20;;;4.40;;
57337;SDS011;43173;50.980;18.204;2023-04-25T11:21:05;5.80;;;3.80;;
57337;SDS011;43173;50.980;18.204;2023-04-25T11:23:31;8.40;;;4.90;;
57337;SDS011;43173;50.980;18.204;2023-04-25T11:25:57;6.00;;;4.00;;
57337;SDS011;43173;50.980;18.204;2023-04-25T11:28:23;8.20;;;3.80;;
57337;SDS011;43173;50.980;18.204;2023-04-25T11:30:49;5.90;;;4.20;;
57337;SDS011;43173;50.980;18.204;2023-04-25T11:33:22;4.70;;;3.50;;
57337;SDS011;43173;50.980;18.204;2023-04-25T11:35:48;6.20;;;4.70;;
57337;SDS011;43173;50.980;18.204;2023-04-25T11:38:14;7.50;;;4.40;;
57337;SDS011;43173;50.980;18.204;2023-04-25T11:40:40;6.20;;;4.10;;
57337;SDS011;43173;50.980;18.204;2023-04-25T11:43:06;5.70;;;4.80;;
57337;SDS011;43173;50.980;18.204;2023-04-25T11:45:32;7.50;;;4.30;;
57337;SDS011;43173;50.980;18.204;2023-04-25T11:47:58;6.00;;;4.00;;
57337;SDS011;43173;50.980;18.204;2023-04-25T11:50:23;5.00;;;3.00;;
57337;SDS011;43173;50.980;18.204;2023-04-25T11:52:49;6.00;;;4.00;;
57337;SDS011;43173;50.980;18.204;2023-04-25T11:55:16;8.30;;;5.00;;
57337;SDS011;43173;50.980;18.204;2023-04-25T11:57:45;8.50;;;5.20;;
57337;SDS011;43173;50.980;18.204;2023-04-25T12:00:15;9.20;;;5.50;;
57337;SDS011;43173;50.980;18.204;2023-04-25T12:02:43;7.80;;;4.70;;
57337;SDS011;43173;50.980;18.204;2023-04-25T12:05:12;8.80;;;5.20;;
57337;SDS011;43173;50.980;18.204;2023-04-25T12:07:40;5.60;;;4.60;;
57337;SDS011;43173;50.980;18.204;2023-04-25T12:10:12;7.50;;;5.10;;
57337;SDS011;43173;50.980;18.204;2023-04-25T12:12:43;5.90;;;4.80;;
57337;SDS011;43173;50.980;18.204;2023-04-25T12:15:11;5.50;;;4.20;;
57337;SDS011;43173;50.980;18.204;2023-04-25T12:17:39;5.60;;;3.40;;
57337;SDS011;43173;50.980;18.204;2023-04-25T12:20:06;8.10;;;5.10;;
57337;SDS011;43173;50.980;18.204;2023-04-25T12:22:33;6.80;;;4.80;;
57337;SDS011;43173;50.980;18.204;2023-04-25T12:24:59;4.90;;;4.40;;
57337;SDS011;43173;50.980;18.204;2023-04-25T12:27:25;6.00;;;4.10;;
57337;SDS011;43173;50.980;18.204;2023-04-25T12:29:55;5.40;;;2.90;;
57337;SDS011;43173;50.980;18.204;2023-04-25T12:32:21;4.70;;;3.60;;
57337;SDS011;43173;50.980;18.204;2023-04-25T12:34:47;6.60;;;4.20;;
57337;SDS011;43173;50.980;18.204;2023-04-25T12:37:13;6.00;;;4.20;;
57337;SDS011;43173;50.980;18.204;2023-04-25T12:39:39;5.60;;;3.60;;
57337;SDS011;43173;50.980;18.204;2023-04-25T12:42:04;3.90;;;3.20;;
57337;SDS011;43173;50.980;18.204;2023-04-25T12:44:33;5.70;;;3.20;;
57337;SDS011;43173;50.980;18.204;2023-04-25T12:46:59;3.20;;;2.90;;
57337;SDS011;43173;50.980;18.204;2023-04-25T12:49:25;4.40;;;3.00;;
57337;SDS011;43173;50.980;18.204;2023-04-25T12:51:50;4.70;;;2.80;;
57337;SDS011;43173;50.980;18.204;2023-04-25T12:54:17;4.90;;;2.90;;
57337;SDS011;43173;50.980;18.204;2023-04-25T12:56:42;7.70;;;3.20;;
57337;SDS011;43173;50.980;18.204;2023-04-25T12:59:08;5.30;;;3.50;;
57337;SDS011;43173;50.980;18.204;2023-04-25T13:01:34;4.90;;;3.60;;
57337;SDS011;43173;50.980;18.204;2023-04-25T13:04:00;4.80;;;2.70;;
57337;SDS011;43173;50.980;18.204;2023-04-25T13:06:26;4.30;;;2.10;;
57337;SDS011;43173;50.980;18.204;2023-04-25T13:08:52;4.70;;;2.00;;
57337;SDS011;43173;50.980;18.204;2023-04-25T13:11:17;2.40;;;1.70;;
57337;SDS011;43173;50.980;18.204;2023-04-25T13:13:43;4.20;;;2.00;;
57337;SDS011;43173;50.980;18.204;2023-04-25T13:16:09;3.90;;;1.90;;
57337;SDS011;43173;50.980;18.204;2023-04-25T13:18:35;5.20;;;2.30;;
57337;SDS011;43173;50.980;18.204;2023-04-25T13:21:01;2.50;;;1.80;;
57337;SDS011;43173;50.980;18.204;2023-04-25T13:23:27;2.30;;;1.60;;
57337;SDS011;43173;50.980;18.204;2023-04-25T13:25:54;2.40;;;1.60;;
57337;SDS011;43173;50.980;18.204;2023-04-25T13:28:20;4.10;;;2.00;;
57337;SDS011;43173;50.980;18.204;2023-04-25T13:30:46;3.80;;;1.90;;
57337;SDS011;43173;50.980;18.204;2023-04-25T13:33:14;3.70;;;1.60;;
57337;SDS011;43173;50.980;18.204;2023-04-25T13:35:40;2.80;;;1.60;;
57337;SDS011;43173;50.980;18.204;2023-04-25T13:38:06;4.30;;;1.60;;
57337;SDS011;43173;50.980;18.204;2023-04-25T13:40:32;2.20;;;1.50;;
57337;SDS011;43173;50.980;18.204;2023-04-25T13:42:58;2.70;;;1.40;;
57337;SDS011;43173;50.980;18.204;2023-04-25T13:45:24;1.50;;;1.10;;
57337;SDS011;43173;50.980;18.204;2023-04-25T13:47:50;1.50;;;1.30;;
57337;SDS011;43173;50.980;18.204;2023-04-25T13:50:16;2.40;;;1.50;;
57337;SDS011;43173;50.980;18.204;2023-04-25T13:52:42;2.10;;;1.30;;
57337;SDS011;43173;50.980;18.204;2023-04-25T13:55:08;3.10;;;1.80;;
57337;SDS011;43173;50.980;18.204;2023-04-25T13:57:35;3.60;;;1.80;;
57337;SDS011;43173;50.980;18.204;2023-04-25T14:00:01;2.70;;;1.50;;
57337;SDS011;43173;50.980;18.204;2023-04-25T14:02:35;4.10;;;1.40;;
57337;SDS011;43173;50.980;18.204;2023-04-25T14:05:01;4.00;;;1.40;;
57337;SDS011;43173;50.980;18.204;2023-04-25T14:07:28;3.00;;;1.40;;
57337;SDS011;43173;50.980;18.204;2023-04-25T14:09:54;3.60;;;1.40;;
57337;SDS011;43173;50.980;18.204;2023-04-25T14:12:19;3.40;;;1.90;;
57337;SDS011;43173;50.980;18.204;2023-04-25T14:14:45;3.20;;;1.30;;
57337;SDS011;43173;50.980;18.204;2023-04-25T14:17:11;2.70;;;1.50;;
57337;SDS011;43173;50.980;18.204;2023-04-25T14:19:37;3.40;;;1.60;;
57337;SDS011;43173;50.980;18.204;2023-04-25T14:22:03;2.70;;;1.50;;
57337;SDS011;43173;50.980;18.204;2023-04-25T14:24:29;4.40;;;1.70;;
57337;SDS011;43173;50.980;18.204;2023-04-25T14:26:55;5.00;;;1.30;;
57337;SDS011;43173;50.980;18.204;2023-04-25T14:29:21;11.20;;;1.60;;
57337;SDS011;43173;50.980;18.204;2023-04-25T14:31:46;8.00;;;1.60;;
57337;SDS011;43173;50.980;18.204;2023-04-25T14:34:12;5.60;;;1.80;;
57337;SDS011;43173;50.980;18.204;2023-04-25T14:36:38;5.50;;;1.80;;
57337;SDS011;43173;50.980;18.204;2023-04-25T14:39:03;2.50;;;1.70;;
57337;SDS011;43173;50.980;18.204;2023-04-25T14:41:30;4.40;;;1.80;;
57337;SDS011;43173;50.980;18.204;2023-04-25T14:43:56;5.10;;;1.70;;
57337;SDS011;43173;50.980;18.204;2023-04-25T14:46:22;2.10;;;1.60;;
57337;SDS011;43173;50.980;18.204;2023-04-25T14:48:49;17.50;;;2.40;;
57337;SDS011;43173;50.980;18.204;2023-04-25T14:51:15;8.70;;;1.90;;
57337;SDS011;43173;50.980;18.204;2023-04-25T14:53:40;9.80;;;1.90;;